Time;durP1;ratioP1;P1;durP2;ratioP2;P2;SDS_P1;SDS_P2;PMS_P1;PMS_P2;Temp;Humidity;BMP_temperature;BMP_pressure;BME280_temperature;BME280_humidity;BME280_pressure;Samples;Min_cycle;Max_cycle;Signal;HPM_P1;HPM_P2
2021/06/19 00:00:21;;;;;;;22.27;20.88;;;;;;;17.03;80.46;93321.06;5010967;28;20053;-42
2021/06/19 00:02:47;;;;;;;21.25;19.73;;;;;;;17.58;79.81;93389.69;5010818;28;20626;-42
2021/06/19 00:05:13;;;;;;;22.08;20.75;;;;;;;17.54;80.44;93373.41;5010721;28;20030;-43
2021/06/19 00:07:39;;;;;;;21.67;20.38;;;;;;;17.53;80.11;93371.94;5010618;28;20017;-43
2021/06/19 00:10:05;;;;;;;21.92;20.55;;;;;;;17.32;80.35;93349.56;5007939;28;20044;-43
2021/06/19 00:12:31;;;;;;;20.60;19.40;;;;;;;16.89;80.71;93300.59;5010426;28;20082;-42
2021/06/19 00:14:56;;;;;;;22.42;21.17;;;;;;;17.32;81.18;93374.69;5010810;28;20107;-43
2021/06/19 00:17:22;;;;;;;20.38;19.27;;;;;;;16.77;81.54;93280.97;5010491;28;20022;-40
2021/06/19 00:19:47;;;;;;;23.02;21.73;;;;;;;16.87;81.78;93317.91;5011382;28;20032;-42
2021/06/19 00:22:13;;;;;;;22.67;21.27;;;;;;;17.06;81.97;93329.00;5010746;28;20017;-40
2021/06/19 00:24:39;;;;;;;24.80;23.25;;;;;;;17.37;81.77;93373.59;5009362;28;20025;-40
2021/06/19 00:27:06;;;;;;;25.10;23.42;;;;;;;16.85;81.55;93303.09;5008602;28;20033;-42
2021/06/19 00:29:32;;;;;;;25.23;23.70;;;;;;;16.75;81.82;93285.66;5010955;28;20490;-42
2021/06/19 00:31:57;;;;;;;25.15;23.55;;;;;;;16.87;81.46;93292.09;5011440;28;20061;-41
2021/06/19 00:34:23;;;;;;;24.00;22.45;;;;;;;16.96;81.35;93310.81;5011214;28;20500;-44
2021/06/19 00:36:49;;;;;;;24.05;22.75;;;;;;;16.87;81.17;93303.94;5011257;28;20017;-42
2021/06/19 00:39:14;;;;;;;23.48;22.27;;;;;;;17.25;82.00;93370.00;5010619;28;20117;-42
2021/06/19 00:41:40;;;;;;;24.02;22.73;;;;;;;16.78;81.99;93288.03;5010472;28;20061;-41
2021/06/19 00:44:15;;;;;;;23.63;22.42;;;;;;;16.79;82.30;93285.94;5009870;28;20512;-41
2021/06/19 00:46:40;;;;;;;22.25;21.05;;;;;;;16.97;82.41;93312.28;5010239;28;20105;-41
2021/06/19 00:49:06;;;;;;;22.67;21.58;;;;;;;17.31;82.41;93362.03;5017311;28;20458;-40
2021/06/19 00:51:31;;;;;;;23.77;22.67;;;;;;;16.68;82.26;93271.31;5006273;28;20391;-40
2021/06/19 00:53:56;;;;;;;23.02;22.02;;;;;;;16.85;81.93;93287.09;5010001;28;20500;-40
2021/06/19 00:56:22;;;;;;;23.17;22.17;;;;;;;17.23;81.61;93336.38;5009918;28;20021;-40
2021/06/19 00:58:48;;;;;;;23.95;22.95;;;;;;;16.89;81.50;93292.94;5008366;28;20029;-41
2021/06/19 01:01:13;;;;;;;23.17;22.27;;;;;;;16.77;81.79;93280.22;5009556;28;20036;-41
2021/06/19 01:03:39;;;;;;;22.85;21.95;;;;;;;17.08;81.68;93312.38;5008800;28;20057;-41
2021/06/19 01:06:05;;;;;;;24.42;23.42;;;;;;;17.31;82.05;93346.03;5015583;28;20033;-41
2021/06/19 01:08:30;;;;;;;27.92;26.55;;;;;;;17.31;81.65;93342.50;5015783;28;20057;-41
2021/06/19 01:10:57;;;;;;;29.33;27.92;;;;;;;17.09;81.51;93308.25;4998864;28;20478;-44
2021/06/19 01:13:22;;;;;;;27.48;26.27;;;;;;;17.08;81.43;93295.66;5006985;28;20033;-41
2021/06/19 01:15:47;;;;;;;25.90;24.85;;;;;;;17.39;81.39;93343.78;5010827;28;20022;-41
2021/06/19 01:18:13;;;;;;;27.20;25.98;;;;;;;17.35;81.51;93326.78;5010849;28;20104;-42
2021/06/19 01:20:38;;;;;;;27.95;26.75;;;;;;;17.32;80.93;93313.28;5010614;28;20092;-43
2021/06/19 01:23:04;;;;;;;30.05;28.65;;;;;;;17.14;80.87;93287.69;5006760;28;20030;-42
2021/06/19 01:25:32;;;;;;;31.48;30.00;;;;;;;16.77;80.97;93252.34;4991197;28;20030;-41
2021/06/19 01:27:59;;;;;;;32.60;31.20;;;;;;;16.86;81.19;93273.88;4990839;28;20034;-42
2021/06/19 01:30:26;;;;;;;27.55;26.35;;;;;;;17.24;81.38;93335.06;4991053;28;20097;-40
2021/06/19 01:32:52;;;;;;;25.95;24.80;;;;;;;16.91;81.80;93293.09;4990548;28;20033;-41
2021/06/19 01:35:18;;;;;;;25.45;24.35;;;;;;;16.97;82.43;93317.88;4989742;28;20391;-40
2021/06/19 01:37:46;;;;;;;25.00;23.83;;;;;;;16.80;82.47;93302.09;4990899;28;20038;-40
2021/06/19 01:40:17;;;;;;;26.42;24.98;;;;;;;16.94;82.88;93327.41;4990220;28;20064;-40
2021/06/19 01:42:44;;;;;;;27.52;26.02;;;;;;;16.99;83.41;93352.22;4990513;28;20023;-40
2021/06/19 01:45:19;;;;;;;25.95;24.75;;;;;;;16.99;83.42;93349.41;4990661;28;20026;-41
2021/06/19 01:47:45;;;;;;;27.02;25.67;;;;;;;16.97;83.37;93345.75;4990706;28;20030;-40
2021/06/19 01:50:13;;;;;;;26.33;25.05;;;;;;;16.88;83.53;93335.38;4990672;28;20026;-41
2021/06/19 01:52:39;;;;;;;26.33;25.13;;;;;;;16.92;83.81;93339.16;5021607;28;20021;-41
2021/06/19 01:55:06;;;;;;;25.00;23.90;;;;;;;16.54;83.60;93278.72;5029571;28;20033;-41
2021/06/19 01:57:31;;;;;;;20.08;19.17;;;;;;;16.31;83.66;93252.63;5029859;28;20118;-42
2021/06/19 02:00:18;;;;;;;26.85;25.60;;;;;;;16.73;83.90;93316.19;5029823;28;20747;-41
2021/06/19 02:02:43;;;;;;;27.23;26.02;;;;;;;16.93;83.43;93325.97;5029832;28;20468;-41
2021/06/19 02:05:11;;;;;;;20.65;19.65;;;;;;;16.97;83.83;93345.75;5029525;28;20045;-42
2021/06/19 02:08:00;;;;;;;24.27;23.17;;;;;;;16.97;83.92;93335.34;5029780;28;20029;-41
2021/06/19 02:10:35;;;;;;;25.17;23.90;;;;;;;16.80;83.90;93309.72;5029406;28;20041;-41
2021/06/19 02:13:01;;;;;;;28.42;26.52;;;;;;;16.99;84.18;93349.41;5029251;28;20512;-41
2021/06/19 02:15:27;;;;;;;30.77;29.05;;;;;;;16.89;83.84;93322.91;5029362;28;20033;-41
2021/06/19 02:17:56;;;;;;;38.90;37.10;;;;;;;16.46;83.67;93255.09;5028490;28;20036;-43
2021/06/19 02:20:23;;;;;;;37.78;35.97;;;;;;;16.54;84.33;93278.72;5017888;28;20064;-41
2021/06/19 02:22:49;;;;;;;40.60;38.40;;;;;;;16.64;84.32;93292.59;5009311;28;20109;-42
2021/06/19 02:25:17;;;;;;;47.17;44.25;;;;;;;16.95;84.14;93332.41;5009768;28;20061;-43
2021/06/19 02:27:48;;;;;;;51.15;48.17;;;;;;;16.65;84.37;93294.78;5009792;28;20494;-44
2021/06/19 02:30:14;;;;;;;45.40;42.50;;;;;;;16.45;84.24;93251.59;5009466;28;20037;-45
2021/06/19 02:32:39;;;;;;;32.17;29.88;;;;;;;16.73;83.66;93296.69;5009522;28;20034;-44
2021/06/19 02:35:05;;;;;;;38.22;35.22;;;;;;;16.27;83.94;93235.66;5009365;28;20496;-42
2021/06/19 02:37:31;;;;;;;30.95;28.85;;;;;;;16.69;84.04;93294.34;5009415;28;20566;-47
2021/06/19 02:39:57;;;;;;;30.95;29.25;;;;;;;17.02;83.65;93337.06;5009299;28;20050;-43
2021/06/19 02:42:22;;;;;;;35.72;33.47;;;;;;;16.79;83.66;93300.63;5009373;28;20026;-43
2021/06/19 02:44:48;;;;;;;40.47;37.25;;;;;;;17.03;83.39;93341.31;5024904;28;20030;-45
2021/06/19 02:47:13;;;;;;;35.55;33.13;;;;;;;16.85;83.43;93317.75;5012207;28;20033;-44
2021/06/19 02:49:39;;;;;;;33.22;31.23;;;;;;;16.95;83.65;93331.69;5013355;28;20496;-45
2021/06/19 02:52:04;;;;;;;30.35;28.58;;;;;;;16.96;83.34;93327.53;5024401;28;20033;-43
2021/06/19 02:54:30;;;;;;;31.50;29.73;;;;;;;16.51;83.18;93262.44;5032923;28;20021;-42
2021/06/19 02:56:55;;;;;;;41.05;37.25;;;;;;;16.53;83.32;93274.47;5033297;28;20040;-44
2021/06/19 02:59:20;;;;;;;36.05;32.97;;;;;;;16.52;83.92;93275.78;5032872;28;20029;-43
2021/06/19 03:01:46;;;;;;;34.25;31.75;;;;;;;17.03;83.67;93344.13;5032799;28;20025;-46
2021/06/19 03:04:13;;;;;;;29.13;27.63;;;;;;;16.67;83.92;93291.44;5032648;28;20032;-45
2021/06/19 03:06:39;;;;;;;29.40;27.70;;;;;;;16.67;83.82;93297.00;5033049;28;20029;-43
2021/06/19 03:09:04;;;;;;;27.98;26.38;;;;;;;16.48;83.49;93263.59;5032914;28;20504;-40
2021/06/19 03:11:30;;;;;;;27.38;25.88;;;;;;;16.91;84.18;93342.56;5032583;28;20236;-40
2021/06/19 03:13:57;;;;;;;26.48;25.17;;;;;;;16.13;83.76;93223.53;5031287;28;20029;-44
2021/06/19 03:16:22;;;;;;;26.08;24.77;;;;;;;16.95;84.21;93345.63;5022986;28;20451;-42
2021/06/19 03:18:48;;;;;;;27.20;25.70;;;;;;;16.54;84.19;93295.44;5013026;28;20061;-41
2021/06/19 03:21:13;;;;;;;27.75;26.30;;;;;;;16.20;84.55;93251.22;5027922;28;20033;-41
2021/06/19 03:23:38;;;;;;;27.85;26.45;;;;;;;16.45;84.49;93285.03;5016312;28;20026;-41
2021/06/19 03:26:04;;;;;;;30.70;29.25;;;;;;;16.94;84.36;93356.03;5012809;28;20037;-41
2021/06/19 03:28:29;;;;;;;28.58;27.08;;;;;;;16.40;84.79;93286.06;5019639;28;20029;-41
2021/06/19 03:30:55;;;;;;;30.65;29.25;;;;;;;16.86;84.55;93346.38;5025623;28;20116;-40
2021/06/19 03:33:20;;;;;;;27.75;26.45;;;;;;;16.95;84.92;93360.31;5019669;28;20054;-42
2021/06/19 03:35:47;;;;;;;28.20;26.90;;;;;;;16.62;84.44;93315.50;5012671;28;20035;-40
2021/06/19 03:38:12;;;;;;;27.92;26.63;;;;;;;16.57;84.07;93294.25;5010906;28;20033;-40
2021/06/19 03:40:38;;;;;;;26.67;25.42;;;;;;;16.61;83.86;93288.25;5012363;28;20061;-39
2021/06/19 03:43:04;;;;;;;27.02;25.65;;;;;;;16.79;83.88;93324.97;5012226;28;20026;-39
2021/06/19 03:45:34;;;;;;;25.73;24.38;;;;;;;16.64;83.51;93287.03;5012488;28;20061;-40
2021/06/19 03:48:00;;;;;;;26.85;25.45;;;;;;;16.85;83.71;93314.97;5012010;28;20084;-40
2021/06/19 03:50:27;;;;;;;26.83;25.55;;;;;;;16.57;83.29;93288.66;5011959;28;20033;-40
2021/06/19 03:52:56;;;;;;;26.98;25.67;;;;;;;17.07;83.43;93361.13;5029548;28;20028;-40
2021/06/19 03:55:23;;;;;;;29.25;27.75;;;;;;;17.09;83.61;93355.69;5031903;28;20034;-40
2021/06/19 03:57:48;;;;;;;26.17;24.98;;;;;;;17.16;83.26;93356.81;5030800;28;20029;-40
2021/06/19 04:00:16;;;;;;;26.67;25.38;;;;;;;16.98;83.14;93347.94;5031680;28;20024;-41
2021/06/19 04:02:43;;;;;;;75.60;70.30;;;;;;;17.21;82.83;93364.91;5031701;28;20406;-41
2021/06/19 04:05:11;;;;;;;33.28;31.38;;;;;;;17.17;82.90;93339.50;5031237;28;20029;-39
2021/06/19 04:07:37;;;;;;;27.88;26.58;;;;;;;17.27;82.56;93359.72;5030658;28;20040;-40
2021/06/19 04:10:04;;;;;;;28.17;26.67;;;;;;;17.14;82.70;93343.47;5031504;28;20037;-40
2021/06/19 04:12:29;;;;;;;29.80;28.48;;;;;;;17.02;82.96;93325.91;5023154;28;20026;-40
2021/06/19 04:14:55;;;;;;;29.23;27.88;;;;;;;16.68;83.02;93281.72;5011693;28;20266;-40
2021/06/19 04:17:20;;;;;;;31.52;29.70;;;;;;;17.10;83.46;93350.84;5011463;28;20681;-40
2021/06/19 04:19:46;;;;;;;36.45;33.90;;;;;;;17.15;83.50;93349.81;5011507;28;20062;-39
2021/06/19 04:22:12;;;;;;;37.85;35.20;;;;;;;17.23;83.16;93353.88;5010955;28;20029;-40
2021/06/19 04:24:38;;;;;;;34.45;32.50;;;;;;;16.97;83.29;93312.28;5011444;28;20029;-39
2021/06/19 04:27:05;;;;;;;35.03;33.03;;;;;;;16.97;83.13;93315.81;5011144;28;20040;-40
2021/06/19 04:29:32;;;;;;;34.30;32.25;;;;;;;17.25;82.90;93350.47;5011277;28;20028;-41
2021/06/19 04:32:00;;;;;;;33.72;32.05;;;;;;;17.29;82.52;93347.97;5011253;28;20041;-41
2021/06/19 04:34:26;;;;;;;36.33;34.40;;;;;;;17.31;82.27;93337.66;5026141;28;20520;-39
2021/06/19 04:36:52;;;;;;;41.42;39.13;;;;;;;17.22;81.67;93318.16;5011302;28;20053;-39
2021/06/19 04:39:18;;;;;;;38.38;36.22;;;;;;;17.15;81.85;93316.31;5010855;28;20085;-39
2021/06/19 04:47:02;;;;;;;38.38;36.58;;;;;;;16.81;82.20;93256.16;5011060;28;20517;-40
2021/06/19 04:49:28;;;;;;;40.33;38.42;;;;;;;17.41;82.12;93337.63;5011162;28;20022;-40
2021/06/19 04:51:53;;;;;;;39.95;38.15;;;;;;;17.50;81.94;93344.47;5020508;28;20076;-40
2021/06/19 04:54:20;;;;;;;41.08;39.17;;;;;;;17.54;81.77;93345.50;5030606;28;20709;-40
2021/06/19 04:56:45;;;;;;;41.97;40.08;;;;;;;17.42;81.58;93334.22;5030258;28;20513;-40
2021/06/19 04:59:11;;;;;;;41.15;39.35;;;;;;;17.55;81.76;93346.97;5030455;28;20036;-40
2021/06/19 05:01:36;;;;;;;42.88;40.97;;;;;;;17.34;81.63;93322.53;5028433;28;20022;-39
2021/06/19 05:04:02;;;;;;;42.25;40.40;;;;;;;17.52;81.80;93342.56;5030697;28;20021;-40
2021/06/19 05:06:28;;;;;;;43.50;41.58;;;;;;;17.57;81.59;93355.47;5029290;28;20025;-41
2021/06/19 05:08:54;;;;;;;43.15;41.13;;;;;;;17.58;81.78;93359.72;5020755;28;20026;-40
2021/06/19 05:11:19;;;;;;;42.55;40.45;;;;;;;17.49;82.09;93338.16;5010652;28;20115;-40
2021/06/19 05:13:47;;;;;;;44.13;42.22;;;;;;;17.63;82.25;93363.53;5010821;28;20025;-41
2021/06/19 05:16:14;;;;;;;44.08;42.13;;;;;;;17.54;82.02;93350.34;5011024;28;20140;-40
2021/06/19 05:18:39;;;;;;;46.05;43.83;;;;;;;17.44;82.08;93337.16;5010878;28;20022;-40
2021/06/19 05:21:05;;;;;;;47.58;45.40;;;;;;;17.33;81.71;93317.53;5010600;28;20033;-40
2021/06/19 05:23:30;;;;;;;46.10;44.10;;;;;;;17.67;81.22;93353.34;5010489;28;20025;-40
2021/06/19 05:25:56;;;;;;;44.88;42.78;;;;;;;17.80;81.63;93374.44;5010420;28;20084;-42
2021/06/19 05:28:23;;;;;;;49.05;46.90;;;;;;;17.73;80.82;93362.13;5011877;28;20021;-42
2021/06/19 05:30:49;;;;;;;51.63;49.35;;;;;;;17.77;80.10;93376.34;5012458;28;20045;-41
2021/06/19 05:33:14;;;;;;;65.07;61.00;;;;;;;17.99;79.86;93377.81;5008545;28;20034;-43
2021/06/19 05:35:40;;;;;;;68.15;65.05;;;;;;;18.08;79.05;93367.91;5008879;28;20022;-42
2021/06/19 05:38:05;;;;;;;57.08;54.28;;;;;;;18.19;79.19;93365.16;5008602;28;20631;-43
2021/06/19 05:40:30;;;;;;;122.18;113.65;;;;;;;18.38;78.32;93377.50;5008810;28;20093;-44
2021/06/19 05:42:56;;;;;;;74.60;71.35;;;;;;;18.34;77.31;93354.88;5009204;28;20018;-41
2021/06/19 05:45:22;;;;;;;72.38;69.28;;;;;;;18.46;76.75;93355.69;5008565;28;20018;-42
2021/06/19 05:47:47;;;;;;;81.45;77.85;;;;;;;18.60;76.50;93376.88;5009506;28;20026;-41
2021/06/19 05:50:13;;;;;;;75.40;72.05;;;;;;;18.61;76.40;93377.59;5010357;28;20030;-41
2021/06/19 05:52:38;;;;;;;78.20;74.80;;;;;;;18.64;76.11;93376.41;5025296;28;20481;-43
2021/06/19 05:55:05;;;;;;;206.57;189.85;;;;;;;18.23;75.59;93310.84;5028824;28;20725;-42
2021/06/19 05:57:31;;;;;;;69.50;66.40;;;;;;;18.68;77.14;93380.19;5029551;28;20113;-42
2021/06/19 05:59:56;;;;;;;72.63;69.20;;;;;;;18.73;77.60;93379.09;5028345;28;20477;-41
2021/06/19 06:02:21;;;;;;;74.78;71.00;;;;;;;18.69;77.49;93372.53;5029825;28;20017;-42
2021/06/19 06:04:47;;;;;;;74.05;70.80;;;;;;;18.58;76.15;93331.28;5022933;28;20571;-40
2021/06/19 06:07:12;;;;;;;70.28;67.20;;;;;;;18.68;76.10;93331.91;5009950;28;20024;-43
2021/06/19 06:09:38;;;;;;;73.35;70.20;;;;;;;18.93;75.82;93368.44;5009702;28;20552;-41
2021/06/19 06:12:05;;;;;;;72.72;69.55;;;;;;;18.87;75.39;93362.47;5009636;28;20061;-42
2021/06/19 06:14:31;;;;;;;77.28;73.78;;;;;;;18.81;75.51;93348.84;5009699;28;20022;-41
2021/06/19 06:16:56;;;;;;;63.88;61.03;;;;;;;18.55;75.96;93301.72;5009975;28;20026;-42
2021/06/19 06:19:23;;;;;;;62.20;59.38;;;;;;;19.09;75.66;93363.84;5009923;28;20084;-43
2021/06/19 06:21:48;;;;;;;59.65;56.85;;;;;;;19.24;74.45;93379.41;5011684;28;20449;-43
2021/06/19 06:24:14;;;;;;;57.40;54.97;;;;;;;19.29;73.42;93376.28;5013624;28;20022;-43
2021/06/19 06:26:39;;;;;;;52.45;50.25;;;;;;;19.40;73.30;93369.25;5013959;28;20057;-42
2021/06/19 06:29:05;;;;;;;56.25;53.45;;;;;;;19.36;73.35;93352.19;5012298;28;20036;-41
2021/06/19 06:31:33;;;;;;;50.38;48.17;;;;;;;19.57;72.03;93358.41;5013786;28;20026;-42
2021/06/19 06:33:59;;;;;;;45.72;43.70;;;;;;;19.67;71.21;93344.25;5013563;28;20026;-42
2021/06/19 06:36:25;;;;;;;39.58;37.72;;;;;;;19.63;70.92;93332.81;5013417;28;20045;-40
2021/06/19 06:38:50;;;;;;;37.78;36.08;;;;;;;19.96;70.86;93369.03;5013310;28;20060;-41
2021/06/19 06:41:15;;;;;;;37.70;35.88;;;;;;;19.79;70.48;93336.56;5013386;28;20096;-41
2021/06/19 06:43:41;;;;;;;42.67;40.75;;;;;;;19.77;71.43;93350.47;5013104;28;20025;-42
2021/06/19 06:46:06;;;;;;;43.42;41.28;;;;;;;19.89;71.78;93367.22;5012400;28;20026;-41
2021/06/19 06:48:32;;;;;;;39.08;37.40;;;;;;;19.58;70.78;93322.69;5013176;28;20076;-41
2021/06/19 06:50:57;;;;;;;34.60;32.97;;;;;;;19.57;70.06;93329.66;5015033;28;20419;-41
2021/06/19 06:53:23;;;;;;;36.78;34.40;;;;;;;19.82;70.51;93354.94;5033173;28;20108;-43
2021/06/19 07:41:13;;;;;;;14.63;13.60;;;;;;;25.44;51.48;93320.09;5001245;28;142939;-48
2021/06/19 07:43:39;;;;;;;14.20;13.15;;;;;;;26.23;48.76;93332.13;5014579;28;20065;-49
2021/06/19 07:46:05;;;;;;;12.05;11.55;;;;;;;27.47;47.55;93326.22;5014489;28;20413;-50
2021/06/19 07:48:31;;;;;;;14.27;13.57;;;;;;;28.45;43.94;93320.44;5005954;28;20030;-47
2021/06/19 07:50:56;;;;;;;26.98;25.67;;;;;;;28.86;43.36;93327.16;5005801;28;20029;-50
2021/06/19 07:53:22;;;;;;;16.13;15.43;;;;;;;29.30;41.35;93322.53;5006246;28;20022;-47
2021/06/19 07:55:48;;;;;;;16.33;15.52;;;;;;;30.15;39.14;93321.47;5006678;28;20414;-45
2021/06/19 07:58:13;;;;;;;16.73;15.93;;;;;;;30.96;37.26;93315.09;5004609;28;20025;-47
2021/06/19 08:00:39;;;;;;;24.42;23.23;;;;;;;31.42;36.30;93319.38;5006073;28;20022;-46
2021/06/19 08:03:04;;;;;;;27.50;26.10;;;;;;;30.81;35.11;93319.81;5006176;28;20080;-45
2021/06/19 08:05:30;;;;;;;30.25;28.90;;;;;;;30.26;37.13;93309.56;5016978;28;20025;-48
2021/06/19 08:07:55;;;;;;;31.40;29.80;;;;;;;30.67;35.18;93303.19;5017499;28;20025;-45
2021/06/19 08:10:21;;;;;;;30.77;29.25;;;;;;;30.75;34.42;93316.16;5012713;28;20026;-47
2021/06/19 08:12:47;;;;;;;25.45;24.10;;;;;;;31.50;33.42;93318.78;5012689;28;20602;-49
2021/06/19 08:15:13;;;;;;;1.55;1.33;;;;;;;31.83;32.28;93311.38;5010590;28;20040;-47
2021/06/19 08:17:38;;;;;;;3.13;1.30;;;;;;;32.25;31.22;93320.47;5011564;28;20517;-47
2021/06/19 08:20:05;;;;;;;2.05;1.20;;;;;;;32.64;31.05;93319.47;5012445;28;20046;-49
2021/06/19 08:22:31;;;;;;;1.42;1.33;;;;;;;32.77;29.15;93317.44;5012457;28;20018;-47
2021/06/19 08:24:56;;;;;;;2.38;1.48;;;;;;;33.04;28.44;93315.53;5012112;28;20032;-45
2021/06/19 08:27:22;;;;;;;2.15;1.02;;;;;;;33.37;28.39;93317.22;5012311;28;20014;-45
2021/06/19 08:29:49;;;;;;;2.05;0.98;;;;;;;33.37;28.33;93314.38;5012234;28;20030;-49
2021/06/19 08:32:15;;;;;;;2.08;0.90;;;;;;;33.54;28.26;93316.66;5011933;28;20029;-45
2021/06/19 08:34:40;;;;;;;1.13;1.02;;;;;;;33.12;28.32;93321.31;5011801;28;20036;-46
2021/06/19 15:21:39;;;;;;;7.95;7.47;;;;;;;22.26;65.57;93258.53;5096883;28;158726;-51
2021/06/19 15:24:05;;;;;;;5.03;4.63;;;;;;;22.30;64.86;93261.53;5088172;28;20767;-47
2021/06/19 15:26:30;;;;;;;4.13;3.88;;;;;;;22.31;64.21;93257.34;5088940;28;20107;-49
2021/06/19 15:28:56;;;;;;;5.95;5.65;;;;;;;22.10;64.69;93272.53;5089433;28;20103;-50
2021/06/19 15:31:21;;;;;;;5.70;5.40;;;;;;;22.00;65.43;93274.84;5089707;28;20408;-48
2021/06/19 15:33:47;;;;;;;5.90;5.50;;;;;;;21.75;65.85;93277.78;5090424;28;20103;-49
2021/06/19 15:36:12;;;;;;;6.28;5.75;;;;;;;21.58;65.38;93289.56;5092635;28;20020;-49
2021/06/19 15:38:41;;;;;;;5.90;5.60;;;;;;;21.50;65.98;93287.09;5090796;28;20032;-47
2021/06/19 15:41:07;;;;;;;6.22;5.93;;;;;;;21.33;65.79;93287.59;5092291;28;20063;-47
2021/06/19 15:43:33;;;;;;;6.95;6.45;;;;;;;21.28;65.53;93282.38;5092730;28;20043;-48
2021/06/19 15:45:58;;;;;;;6.20;5.70;;;;;;;21.18;65.35;93290.31;5092238;28;20012;-47
2021/06/19 15:48:24;;;;;;;6.20;5.75;;;;;;;21.07;65.88;93281.34;5092560;28;20032;-46
2021/06/19 15:50:53;;;;;;;8.00;7.40;;;;;;;20.95;67.17;93275.06;5092542;28;20077;-50
2021/06/19 15:53:18;;;;;;;10.13;8.93;;;;;;;20.91;68.35;93277.66;5090057;28;20103;-46
2021/06/19 15:55:44;;;;;;;8.30;7.80;;;;;;;20.89;68.24;93266.31;5091766;28;20116;-47
2021/06/19 15:58:09;;;;;;;8.75;8.23;;;;;;;20.76;69.42;93264.22;5091644;28;20508;-47
2021/06/19 16:00:35;;;;;;;9.45;8.98;;;;;;;20.66;70.35;93257.34;5091715;28;20020;-46
2021/06/19 16:03:01;;;;;;;8.77;8.00;;;;;;;20.71;70.74;93267.41;5090653;28;20054;-47
2021/06/19 16:05:27;;;;;;;10.98;10.38;;;;;;;20.64;71.55;93257.94;5099453;28;20043;-44
2021/06/19 16:07:52;;;;;;;25.77;23.42;;;;;;;20.57;72.28;93252.66;5100529;28;20020;-46
2021/06/19 16:10:18;;;;;;;10.95;10.20;;;;;;;20.61;72.02;93253.59;5102100;28;20401;-46
2021/06/19 16:12:43;;;;;;;11.70;11.02;;;;;;;20.59;72.51;93255.56;5099810;28;20024;-44
2021/06/19 16:15:10;;;;;;;11.85;11.15;;;;;;;20.65;72.48;93250.25;5089527;28;20024;-44
2021/06/19 16:17:36;;;;;;;12.50;11.90;;;;;;;20.71;72.68;93254.13;5098491;28;20129;-46
2021/06/19 16:20:02;;;;;;;11.90;11.20;;;;;;;20.66;72.40;93241.22;5103422;28;20035;-46
2021/06/19 16:22:28;;;;;;;8.85;8.18;;;;;;;20.72;71.35;93246.44;5087441;28;20051;-44
2021/06/19 16:24:54;;;;;;;11.20;10.23;;;;;;;20.82;71.74;93250.50;5088623;28;20027;-45
2021/06/19 16:27:19;;;;;;;10.85;10.25;;;;;;;20.89;72.23;93243.13;5102377;28;20035;-46
2021/06/19 16:29:46;;;;;;;8.93;8.38;;;;;;;20.98;71.26;93245.75;5109335;28;20031;-45
2021/06/19 16:32:11;;;;;;;13.00;12.00;;;;;;;21.06;71.73;93243.41;5108783;28;20027;-46
2021/06/19 16:34:37;;;;;;;9.57;8.95;;;;;;;20.83;70.02;93198.66;5095108;28;20016;-50
2021/06/19 16:37:03;;;;;;;11.52;10.73;;;;;;;21.02;69.54;93234.75;5088877;28;20055;-48
2021/06/19 16:39:28;;;;;;;10.63;9.93;;;;;;;21.06;69.12;93237.78;5088890;28;20047;-45
2021/06/19 16:41:54;;;;;;;12.27;11.25;;;;;;;20.99;69.49;93249.28;5087689;28;20512;-46
2021/06/19 16:44:20;;;;;;;11.43;10.68;;;;;;;20.84;70.70;93247.81;5088558;28;20106;-48
2021/06/19 16:46:46;;;;;;;10.30;9.65;;;;;;;20.78;71.57;93247.50;5091319;28;20485;-44
2021/06/19 16:49:11;;;;;;;9.40;8.90;;;;;;;20.80;71.03;93244.78;5109294;28;20666;-46
2021/06/19 16:51:37;;;;;;;8.73;8.23;;;;;;;20.78;71.36;93249.56;5090492;28;20031;-47
2021/06/19 16:54:02;;;;;;;9.15;8.55;;;;;;;20.67;70.92;93245.50;5095571;28;20022;-46
2021/06/19 16:56:28;;;;;;;9.52;8.82;;;;;;;20.69;70.95;93259.63;5095352;28;20016;-46
2021/06/19 16:58:53;;;;;;;10.57;9.88;;;;;;;20.68;70.95;93263.78;5088579;28;20043;-46
2021/06/19 17:01:19;;;;;;;10.10;9.10;;;;;;;20.61;71.44;93262.00;5088276;28;20020;-47
2021/06/19 17:03:48;;;;;;;9.20;8.43;;;;;;;20.58;71.59;93265.31;5088122;28;20073;-45
2021/06/19 17:06:13;;;;;;;8.93;8.43;;;;;;;20.59;71.19;93255.56;5088125;28;20032;-47
2021/06/19 17:08:39;;;;;;;9.40;8.90;;;;;;;20.55;71.38;93256.06;5088195;28;20028;-47
2021/06/19 17:11:04;;;;;;;9.32;8.50;;;;;;;20.55;71.74;93261.69;5087202;28;20020;-44
2021/06/19 17:13:33;;;;;;;8.35;7.95;;;;;;;20.48;71.43;93257.09;5088384;28;20143;-44
2021/06/19 17:16:00;;;;;;;8.48;7.97;;;;;;;20.52;71.44;93259.38;5088302;28;20481;-44
2021/06/19 17:18:26;;;;;;;8.10;7.70;;;;;;;20.48;71.57;93240.25;5091086;28;20598;-44
2021/06/19 17:20:52;;;;;;;9.32;8.55;;;;;;;20.53;71.62;93263.66;5088482;28;20110;-44
2021/06/19 17:23:18;;;;;;;8.32;7.93;;;;;;;20.45;70.94;93263.19;5086949;28;20537;-46
2021/06/19 17:25:43;;;;;;;8.43;7.82;;;;;;;20.28;70.58;93261.59;5088027;28;20082;-44
2021/06/19 17:28:09;;;;;;;8.45;7.95;;;;;;;20.18;70.62;93258.91;5087767;28;20028;-44
2021/06/19 17:30:34;;;;;;;8.18;7.57;;;;;;;20.19;71.14;93254.03;5088189;28;20030;-45
2021/06/19 17:33:00;;;;;;;8.68;7.93;;;;;;;20.15;70.71;93259.44;5087834;28;20097;-46
2021/06/19 17:35:25;;;;;;;7.57;7.07;;;;;;;20.09;71.10;93256.28;5087797;28;20031;-45
2021/06/19 17:37:51;;;;;;;15.90;14.98;;;;;;;20.00;71.43;93255.13;5087854;28;20093;-45
2021/06/19 17:40:17;;;;;;;8.48;8.00;;;;;;;19.93;71.77;93261.72;5088170;28;20031;-48
2021/06/19 17:42:43;;;;;;;7.22;6.82;;;;;;;19.73;71.81;93249.34;5088396;28;20032;-43
2021/06/19 17:45:08;;;;;;;8.00;7.35;;;;;;;19.81;71.31;93265.91;5087743;28;20127;-44
2021/06/19 17:47:34;;;;;;;9.90;8.65;;;;;;;19.74;71.49;93276.03;5088062;28;20032;-45
2021/06/19 17:49:59;;;;;;;10.93;10.02;;;;;;;19.66;71.81;93278.38;5098460;28;20069;-45
2021/06/19 17:52:25;;;;;;;8.65;8.02;;;;;;;19.52;71.86;93291.53;5096213;28;20039;-45
2021/06/19 17:54:53;;;;;;;27.23;16.52;;;;;;;19.46;71.10;93303.13;5092598;28;20016;-45
2021/06/19 17:57:25;;;;;;;12.93;11.57;;;;;;;19.43;71.44;93298.00;5087750;28;20030;-46
2021/06/19 17:59:54;;;;;;;11.77;10.52;;;;;;;19.46;70.98;93305.94;5090464;28;20436;-46
2021/06/19 18:02:20;;;;;;;6.82;6.32;;;;;;;19.39;71.12;93304.09;5106463;28;20102;-44
2021/06/19 18:04:45;;;;;;;6.82;6.18;;;;;;;19.43;71.12;93306.41;5099277;28;20116;-44
2021/06/19 18:07:11;;;;;;;13.70;11.57;;;;;;;19.48;71.08;93306.06;5096216;28;20073;-47
2021/06/19 18:09:37;;;;;;;11.23;9.88;;;;;;;19.44;71.55;93300.22;5098249;28;20051;-49
2021/06/19 18:12:03;;;;;;;14.80;12.15;;;;;;;19.30;71.54;93295.81;5098427;28;20019;-47
2021/06/19 18:14:30;;;;;;;8.77;7.97;;;;;;;19.36;70.45;93301.81;5097768;28;20031;-47
2021/06/19 18:16:55;;;;;;;8.25;7.60;;;;;;;19.39;70.90;93301.31;5098578;28;20122;-47
2021/06/19 18:19:21;;;;;;;10.82;10.02;;;;;;;19.26;72.33;93304.69;5097010;28;20024;-44
2021/06/19 18:21:46;;;;;;;11.18;8.95;;;;;;;19.31;71.78;93300.06;5096785;28;20046;-45
2021/06/19 18:24:12;;;;;;;8.35;7.75;;;;;;;19.29;71.95;93303.50;5099574;28;20802;-46
2021/06/19 18:26:37;;;;;;;7.88;7.18;;;;;;;19.19;72.06;93300.06;5095994;28;20027;-45
2021/06/19 18:29:03;;;;;;;10.05;9.15;;;;;;;19.28;71.42;93310.41;5097456;28;20089;-45
2021/06/19 18:31:28;;;;;;;18.48;15.20;;;;;;;19.28;69.89;93313.22;5097512;28;20059;-46
2021/06/19 18:33:54;;;;;;;38.95;22.60;;;;;;;19.25;70.63;93311.63;5097419;28;20016;-43
2021/06/19 18:36:19;;;;;;;19.92;14.32;;;;;;;19.21;70.72;93319.06;5099189;28;20016;-46
2021/06/19 18:38:46;;;;;;;12.48;10.98;;;;;;;19.20;70.99;93321.13;5102465;28;20034;-46
2021/06/19 18:41:11;;;;;;;9.52;8.32;;;;;;;19.16;70.52;93317.38;5104941;28;20027;-48
2021/06/19 18:43:37;;;;;;;13.55;11.50;;;;;;;19.24;70.41;93323.44;5100402;28;20406;-47
2021/06/19 18:46:02;;;;;;;12.48;11.15;;;;;;;19.20;70.44;93332.34;5099940;28;20134;-45
2021/06/19 18:48:27;;;;;;;9.73;8.80;;;;;;;19.23;70.64;93328.31;5098906;28;20677;-44
2021/06/19 18:50:53;;;;;;;8.50;7.90;;;;;;;19.05;70.72;93332.81;5098974;28;20024;-43